sensor_id;sensor_type;location;lat;lon;timestamp;temperature;humidity
17998;DHT22;9124;48.144;17.098;2023-11-19T00:00:59;3.60;96.50
17998;DHT22;9124;48.144;17.098;2023-11-19T00:05:26;3.70;96.70
17998;DHT22;9124;48.144;17.098;2023-11-19T00:09:53;3.80;96.90
17998;DHT22;9124;48.144;17.098;2023-11-19T00:14:21;3.80;96.90
17998;DHT22;9124;48.144;17.098;2023-11-19T00:18:47;3.90;97.00
17998;DHT22;9124;48.144;17.098;2023-11-19T00:23:14;3.90;97.00
17998;DHT22;9124;48.144;17.098;2023-11-19T00:27:40;4.00;97.20
17998;DHT22;9124;48.144;17.098;2023-11-19T00:32:07;4.00;97.20
17998;DHT22;9124;48.144;17.098;2023-11-19T00:36:34;4.10;97.40
17998;DHT22;9124;48.144;17.098;2023-11-19T00:41:01;4.10;97.40
17998;DHT22;9124;48.144;17.098;2023-11-19T00:45:28;4.20;97.50
17998;DHT22;9124;48.144;17.098;2023-11-19T00:49:55;4.20;97.80
17998;DHT22;9124;48.144;17.098;2023-11-19T00:54:22;4.20;97.70
17998;DHT22;9124;48.144;17.098;2023-11-19T00:58:51;4.20;98.00
17998;DHT22;9124;48.144;17.098;2023-11-19T01:03:18;4.10;98.10
17998;DHT22;9124;48.144;17.098;2023-11-19T01:07:44;4.10;98.50
17998;DHT22;9124;48.144;17.098;2023-11-19T01:12:11;4.10;98.70
17998;DHT22;9124;48.144;17.098;2023-11-19T01:16:37;4.10;98.80
17998;DHT22;9124;48.144;17.098;2023-11-19T01:21:05;4.10;98.90
17998;DHT22;9124;48.144;17.098;2023-11-19T01:25:31;4.10;99.10
17998;DHT22;9124;48.144;17.098;2023-11-19T01:29:58;4.10;99.40
17998;DHT22;9124;48.144;17.098;2023-11-19T01:34:25;4.20;99.50
17998;DHT22;9124;48.144;17.098;2023-11-19T01:38:51;4.20;99.50
17998;DHT22;9124;48.144;17.098;2023-11-19T01:43:38;4.20;99.70
17998;DHT22;9124;48.144;17.098;2023-11-19T01:48:05;4.20;99.90
17998;DHT22;9124;48.144;17.098;2023-11-19T01:52:33;4.20;99.90
17998;DHT22;9124;48.144;17.098;2023-11-19T01:57:04;4.30;99.90
17998;DHT22;9124;48.144;17.098;2023-11-19T02:01:30;4.20;99.90
17998;DHT22;9124;48.144;17.098;2023-11-19T02:06:00;4.20;99.90
17998;DHT22;9124;48.144;17.098;2023-11-19T02:10:26;4.20;99.90
17998;DHT22;9124;48.144;17.098;2023-11-19T02:14:53;4.20;99.90
17998;DHT22;9124;48.144;17.098;2023-11-19T02:19:22;4.20;99.90
17998;DHT22;9124;48.144;17.098;2023-11-19T02:23:49;4.10;99.90
17998;DHT22;9124;48.144;17.098;2023-11-19T02:28:15;4.10;99.90
17998;DHT22;9124;48.144;17.098;2023-11-19T02:32:42;4.00;99.90
17998;DHT22;9124;48.144;17.098;2023-11-19T02:37:09;3.90;99.90
17998;DHT22;9124;48.144;17.098;2023-11-19T02:41:36;3.80;99.90
17998;DHT22;9124;48.144;17.098;2023-11-19T02:46:05;3.80;99.90
17998;DHT22;9124;48.144;17.098;2023-11-19T02:50:35;3.90;99.90
17998;DHT22;9124;48.144;17.098;2023-11-19T02:55:01;3.90;99.90
17998;DHT22;9124;48.144;17.098;2023-11-19T02:59:27;3.80;99.90
17998;DHT22;9124;48.144;17.098;2023-11-19T03:04:04;3.90;99.90
17998;DHT22;9124;48.144;17.098;2023-11-19T03:08:31;3.90;99.90
17998;DHT22;9124;48.144;17.098;2023-11-19T03:12:58;3.90;99.90
17998;DHT22;9124;48.144;17.098;2023-11-19T03:17:28;3.90;99.90
17998;DHT22;9124;48.144;17.098;2023-11-19T03:21:54;4.00;99.90
17998;DHT22;9124;48.144;17.098;2023-11-19T03:26:21;4.00;99.90
17998;DHT22;9124;48.144;17.098;2023-11-19T03:30:48;4.00;99.90
17998;DHT22;9124;48.144;17.098;2023-11-19T03:35:16;4.00;99.90
17998;DHT22;9124;48.144;17.098;2023-11-19T03:39:42;4.00;99.90
17998;DHT22;9124;48.144;17.098;2023-11-19T03:44:08;4.10;99.90
17998;DHT22;9124;48.144;17.098;2023-11-19T03:48:34;4.10;99.90
17998;DHT22;9124;48.144;17.098;2023-11-19T03:53:01;4.10;99.90
17998;DHT22;9124;48.144;17.098;2023-11-19T03:57:29;4.20;99.90
17998;DHT22;9124;48.144;17.098;2023-11-19T04:01:55;4.30;99.90
17998;DHT22;9124;48.144;17.098;2023-11-19T04:06:22;4.30;99.90
17998;DHT22;9124;48.144;17.098;2023-11-19T04:10:49;4.30;99.90
17998;DHT22;9124;48.144;17.098;2023-11-19T04:15:16;4.30;99.90
17998;DHT22;9124;48.144;17.098;2023-11-19T04:19:42;4.10;99.90
17998;DHT22;9124;48.144;17.098;2023-11-19T04:24:10;4.00;99.90
17998;DHT22;9124;48.144;17.098;2023-11-19T04:28:40;4.10;99.90
17998;DHT22;9124;48.144;17.098;2023-11-19T04:33:07;3.90;99.90
17998;DHT22;9124;48.144;17.098;2023-11-19T04:37:33;4.00;99.90
17998;DHT22;9124;48.144;17.098;2023-11-19T04:41:59;4.00;99.90
17998;DHT22;9124;48.144;17.098;2023-11-19T04:46:26;4.00;99.90
17998;DHT22;9124;48.144;17.098;2023-11-19T04:50:52;4.10;99.90
17998;DHT22;9124;48.144;17.098;2023-11-19T04:55:18;4.10;99.90
17998;DHT22;9124;48.144;17.098;2023-11-19T04:59:45;4.10;99.90
17998;DHT22;9124;48.144;17.098;2023-11-19T05:04:11;4.10;99.90
17998;DHT22;9124;48.144;17.098;2023-11-19T05:08:38;4.10;99.90
17998;DHT22;9124;48.144;17.098;2023-11-19T05:13:04;4.10;99.90
17998;DHT22;9124;48.144;17.098;2023-11-19T05:17:30;4.10;99.90
17998;DHT22;9124;48.144;17.098;2023-11-19T05:21:57;4.10;99.90
17998;DHT22;9124;48.144;17.098;2023-11-19T05:26:24;4.10;99.90
17998;DHT22;9124;48.144;17.098;2023-11-19T05:30:50;4.00;99.90
17998;DHT22;9124;48.144;17.098;2023-11-19T05:35:16;3.90;99.90
17998;DHT22;9124;48.144;17.098;2023-11-19T05:39:43;3.90;99.90
17998;DHT22;9124;48.144;17.098;2023-11-19T05:44:11;3.80;99.90
17998;DHT22;9124;48.144;17.098;2023-11-19T05:48:37;3.60;99.90
17998;DHT22;9124;48.144;17.098;2023-11-19T05:53:04;3.60;99.90
17998;DHT22;9124;48.144;17.098;2023-11-19T05:57:37;3.60;99.90
17998;DHT22;9124;48.144;17.098;2023-11-19T06:02:04;3.50;99.90
17998;DHT22;9124;48.144;17.098;2023-11-19T06:06:30;3.40;99.90
17998;DHT22;9124;48.144;17.098;2023-11-19T06:10:57;3.40;99.90
17998;DHT22;9124;48.144;17.098;2023-11-19T06:15:24;3.30;99.90
17998;DHT22;9124;48.144;17.098;2023-11-19T06:19:50;3.40;99.90
17998;DHT22;9124;48.144;17.098;2023-11-19T06:24:17;3.40;99.90
17998;DHT22;9124;48.144;17.098;2023-11-19T06:28:43;3.30;99.90
17998;DHT22;9124;48.144;17.098;2023-11-19T06:33:14;3.20;99.90
17998;DHT22;9124;48.144;17.098;2023-11-19T06:37:40;3.20;99.90
17998;DHT22;9124;48.144;17.098;2023-11-19T06:42:07;3.10;99.90
17998;DHT22;9124;48.144;17.098;2023-11-19T06:46:34;3.10;99.90
17998;DHT22;9124;48.144;17.098;2023-11-19T06:51:00;3.10;99.90
17998;DHT22;9124;48.144;17.098;2023-11-19T06:55:27;3.20;99.90
17998;DHT22;9124;48.144;17.098;2023-11-19T06:59:53;3.20;99.90
17998;DHT22;9124;48.144;17.098;2023-11-19T07:04:20;3.20;99.90
17998;DHT22;9124;48.144;17.098;2023-11-19T07:08:46;3.30;99.90
17998;DHT22;9124;48.144;17.098;2023-11-19T07:13:12;3.40;99.90
17998;DHT22;9124;48.144;17.098;2023-11-19T07:17:40;3.60;99.90
17998;DHT22;9124;48.144;17.098;2023-11-19T07:22:06;3.70;99.90
17998;DHT22;9124;48.144;17.098;2023-11-19T07:26:33;3.80;99.90
17998;DHT22;9124;48.144;17.098;2023-11-19T07:30:59;3.80;99.90
17998;DHT22;9124;48.144;17.098;2023-11-19T07:35:26;3.80;99.90
17998;DHT22;9124;48.144;17.098;2023-11-19T07:39:52;3.70;99.90
17998;DHT22;9124;48.144;17.098;2023-11-19T07:44:20;3.70;99.90
17998;DHT22;9124;48.144;17.098;2023-11-19T07:48:47;3.70;99.90
17998;DHT22;9124;48.144;17.098;2023-11-19T07:53:14;3.80;99.90
17998;DHT22;9124;48.144;17.098;2023-11-19T07:57:40;4.00;99.90
17998;DHT22;9124;48.144;17.098;2023-11-19T08:02:06;4.00;99.90
17998;DHT22;9124;48.144;17.098;2023-11-19T08:06:33;4.10;99.90
17998;DHT22;9124;48.144;17.098;2023-11-19T08:10:59;4.20;99.90
17998;DHT22;9124;48.144;17.098;2023-11-19T08:15:25;4.40;99.90
17998;DHT22;9124;48.144;17.098;2023-11-19T08:19:52;4.40;99.90
17998;DHT22;9124;48.144;17.098;2023-11-19T08:24:19;4.60;99.90
17998;DHT22;9124;48.144;17.098;2023-11-19T08:28:45;4.70;99.90
17998;DHT22;9124;48.144;17.098;2023-11-19T08:33:12;4.90;99.90
17998;DHT22;9124;48.144;17.098;2023-11-19T08:37:38;5.40;99.90
17998;DHT22;9124;48.144;17.098;2023-11-19T08:42:05;5.60;99.90
17998;DHT22;9124;48.144;17.098;2023-11-19T08:46:31;5.40;99.90
17998;DHT22;9124;48.144;17.098;2023-11-19T08:50:58;5.40;99.90
17998;DHT22;9124;48.144;17.098;2023-11-19T08:55:25;5.20;99.90
17998;DHT22;9124;48.144;17.098;2023-11-19T08:59:52;5.10;99.90
17998;DHT22;9124;48.144;17.098;2023-11-19T09:04:18;5.10;99.90
17998;DHT22;9124;48.144;17.098;2023-11-19T09:08:48;5.10;99.90
17998;DHT22;9124;48.144;17.098;2023-11-19T09:13:14;5.10;99.90
17998;DHT22;9124;48.144;17.098;2023-11-19T09:17:41;5.10;99.90
17998;DHT22;9124;48.144;17.098;2023-11-19T09:22:07;5.20;99.90
17998;DHT22;9124;48.144;17.098;2023-11-19T09:26:34;5.60;99.90
17998;DHT22;9124;48.144;17.098;2023-11-19T09:31:02;5.70;99.90
17998;DHT22;9124;48.144;17.098;2023-11-19T09:35:31;6.10;99.90
17998;DHT22;9124;48.144;17.098;2023-11-19T09:39:57;6.10;99.90
17998;DHT22;9124;48.144;17.098;2023-11-19T09:44:24;6.00;99.90
17998;DHT22;9124;48.144;17.098;2023-11-19T09:48:53;5.90;99.90
17998;DHT22;9124;48.144;17.098;2023-11-19T09:53:21;5.90;99.90
17998;DHT22;9124;48.144;17.098;2023-11-19T09:57:50;6.00;99.90
17998;DHT22;9124;48.144;17.098;2023-11-19T10:02:18;6.10;99.90
17998;DHT22;9124;48.144;17.098;2023-11-19T10:06:44;6.20;99.90
17998;DHT22;9124;48.144;17.098;2023-11-19T10:11:11;6.00;99.90
17998;DHT22;9124;48.144;17.098;2023-11-19T10:15:39;5.90;99.90
17998;DHT22;9124;48.144;17.098;2023-11-19T10:20:06;5.80;99.90
17998;DHT22;9124;48.144;17.098;2023-11-19T10:24:34;5.80;99.90
17998;DHT22;9124;48.144;17.098;2023-11-19T10:29:00;5.90;99.90
17998;DHT22;9124;48.144;17.098;2023-11-19T10:33:30;5.70;99.90
17998;DHT22;9124;48.144;17.098;2023-11-19T10:38:20;5.50;99.90
17998;DHT22;9124;48.144;17.098;2023-11-19T10:42:45;5.40;99.90
17998;DHT22;9124;48.144;17.098;2023-11-19T10:47:14;5.40;99.90
17998;DHT22;9124;48.144;17.098;2023-11-19T10:51:45;5.30;99.90
17998;DHT22;9124;48.144;17.098;2023-11-19T10:56:13;5.30;99.90
17998;DHT22;9124;48.144;17.098;2023-11-19T11:00:52;5.30;99.90
17998;DHT22;9124;48.144;17.098;2023-11-19T11:05:22;5.30;99.90
17998;DHT22;9124;48.144;17.098;2023-11-19T11:09:49;5.60;99.90
17998;DHT22;9124;48.144;17.098;2023-11-19T11:14:16;5.80;99.90
17998;DHT22;9124;48.144;17.098;2023-11-19T11:18:45;5.70;99.90
17998;DHT22;9124;48.144;17.098;2023-11-19T11:37:49;6.40;99.90
17998;DHT22;9124;48.144;17.098;2023-11-19T11:46:55;6.60;99.90
17998;DHT22;9124;48.144;17.098;2023-11-19T11:56:11;6.40;99.90
17998;DHT22;9124;48.144;17.098;2023-11-19T12:00:38;6.20;99.90
17998;DHT22;9124;48.144;17.098;2023-11-19T12:05:06;6.10;99.90
17998;DHT22;9124;48.144;17.098;2023-11-19T12:09:33;6.20;99.90
17998;DHT22;9124;48.144;17.098;2023-11-19T12:14:01;6.30;99.90
17998;DHT22;9124;48.144;17.098;2023-11-19T12:18:30;6.30;99.90
17998;DHT22;9124;48.144;17.098;2023-11-19T12:23:04;6.30;99.90
17998;DHT22;9124;48.144;17.098;2023-11-19T12:27:33;6.40;99.90
17998;DHT22;9124;48.144;17.098;2023-11-19T12:31:59;6.30;99.90
17998;DHT22;9124;48.144;17.098;2023-11-19T12:36:29;6.30;99.90
17998;DHT22;9124;48.144;17.098;2023-11-19T12:41:08;6.30;99.90
17998;DHT22;9124;48.144;17.098;2023-11-19T12:45:39;6.20;99.90
17998;DHT22;9124;48.144;17.098;2023-11-19T12:50:06;6.10;99.90
17998;DHT22;9124;48.144;17.098;2023-11-19T12:54:34;6.20;99.90
17998;DHT22;9124;48.144;17.098;2023-11-19T12:59:11;6.30;99.90
17998;DHT22;9124;48.144;17.098;2023-11-19T13:03:40;6.40;99.90
17998;DHT22;9124;48.144;17.098;2023-11-19T13:08:09;6.40;99.90
17998;DHT22;9124;48.144;17.098;2023-11-19T13:12:38;6.40;99.90
17998;DHT22;9124;48.144;17.098;2023-11-19T13:17:04;6.20;99.90
17998;DHT22;9124;48.144;17.098;2023-11-19T13:21:32;6.20;99.90
17998;DHT22;9124;48.144;17.098;2023-11-19T13:25:58;6.30;99.90
17998;DHT22;9124;48.144;17.098;2023-11-19T13:30:25;6.20;99.90
17998;DHT22;9124;48.144;17.098;2023-11-19T13:34:52;6.20;99.90
17998;DHT22;9124;48.144;17.098;2023-11-19T13:39:18;6.10;99.90
17998;DHT22;9124;48.144;17.098;2023-11-19T13:43:51;6.00;99.90
17998;DHT22;9124;48.144;17.098;2023-11-19T13:48:17;5.90;99.90
17998;DHT22;9124;48.144;17.098;2023-11-19T13:52:45;5.90;99.90
17998;DHT22;9124;48.144;17.098;2023-11-19T13:57:13;5.90;99.90
17998;DHT22;9124;48.144;17.098;2023-11-19T14:01:40;5.90;99.90
17998;DHT22;9124;48.144;17.098;2023-11-19T14:06:06;5.70;99.90
17998;DHT22;9124;48.144;17.098;2023-11-19T14:10:34;5.70;99.90
17998;DHT22;9124;48.144;17.098;2023-11-19T14:15:02;5.70;99.90
17998;DHT22;9124;48.144;17.098;2023-11-19T14:19:29;5.70;99.90
17998;DHT22;9124;48.144;17.098;2023-11-19T14:23:55;5.70;99.90
17998;DHT22;9124;48.144;17.098;2023-11-19T14:28:21;5.80;99.90
17998;DHT22;9124;48.144;17.098;2023-11-19T14:32:48;5.70;99.90
17998;DHT22;9124;48.144;17.098;2023-11-19T14:37:15;5.60;99.90
17998;DHT22;9124;48.144;17.098;2023-11-19T14:41:43;5.50;99.90
17998;DHT22;9124;48.144;17.098;2023-11-19T14:46:10;5.30;99.90
17998;DHT22;9124;48.144;17.098;2023-11-19T14:50:37;5.20;99.90
17998;DHT22;9124;48.144;17.098;2023-11-19T14:55:03;5.10;99.90
17998;DHT22;9124;48.144;17.098;2023-11-19T14:59:30;5.10;99.90
17998;DHT22;9124;48.144;17.098;2023-11-19T15:03:56;5.00;99.90
17998;DHT22;9124;48.144;17.098;2023-11-19T15:08:23;5.00;99.90
17998;DHT22;9124;48.144;17.098;2023-11-19T15:12:49;4.90;99.90
17998;DHT22;9124;48.144;17.098;2023-11-19T15:17:15;5.00;99.90
17998;DHT22;9124;48.144;17.098;2023-11-19T15:21:42;4.90;99.90
17998;DHT22;9124;48.144;17.098;2023-11-19T15:26:08;4.80;99.90
17998;DHT22;9124;48.144;17.098;2023-11-19T15:30:36;4.80;99.90
17998;DHT22;9124;48.144;17.098;2023-11-19T15:35:03;4.90;99.90
17998;DHT22;9124;48.144;17.098;2023-11-19T15:39:29;4.80;99.90
17998;DHT22;9124;48.144;17.098;2023-11-19T15:43:55;4.80;99.90
17998;DHT22;9124;48.144;17.098;2023-11-19T15:48:21;4.80;99.90
17998;DHT22;9124;48.144;17.098;2023-11-19T15:52:48;4.80;99.90
17998;DHT22;9124;48.144;17.098;2023-11-19T15:57:14;4.80;99.90
17998;DHT22;9124;48.144;17.098;2023-11-19T16:01:41;4.70;99.90
17998;DHT22;9124;48.144;17.098;2023-11-19T16:06:07;4.70;99.90
17998;DHT22;9124;48.144;17.098;2023-11-19T16:10:40;4.70;99.90
17998;DHT22;9124;48.144;17.098;2023-11-19T16:15:08;4.70;99.90
17998;DHT22;9124;48.144;17.098;2023-11-19T16:19:35;4.60;99.90
17998;DHT22;9124;48.144;17.098;2023-11-19T16:24:03;4.40;99.90
17998;DHT22;9124;48.144;17.098;2023-11-19T16:28:31;4.30;99.90
17998;DHT22;9124;48.144;17.098;2023-11-19T16:32:57;4.20;99.90
17998;DHT22;9124;48.144;17.098;2023-11-19T16:37:27;4.20;99.90
17998;DHT22;9124;48.144;17.098;2023-11-19T16:41:53;4.20;99.90
17998;DHT22;9124;48.144;17.098;2023-11-19T16:46:20;4.30;99.90
17998;DHT22;9124;48.144;17.098;2023-11-19T16:50:46;4.30;99.90
17998;DHT22;9124;48.144;17.098;2023-11-19T16:55:15;4.20;99.90
17998;DHT22;9124;48.144;17.098;2023-11-19T16:59:41;4.10;99.90
17998;DHT22;9124;48.144;17.098;2023-11-19T17:04:08;4.10;99.90
17998;DHT22;9124;48.144;17.098;2023-11-19T17:08:34;4.10;99.90
17998;DHT22;9124;48.144;17.098;2023-11-19T17:13:03;4.20;99.90
17998;DHT22;9124;48.144;17.098;2023-11-19T17:17:33;4.20;99.90
17998;DHT22;9124;48.144;17.098;2023-11-19T17:22:01;4.20;99.90
17998;DHT22;9124;48.144;17.098;2023-11-19T17:26:29;4.30;99.90
17998;DHT22;9124;48.144;17.098;2023-11-19T17:30:55;4.30;99.90
17998;DHT22;9124;48.144;17.098;2023-11-19T17:35:22;4.30;99.90
17998;DHT22;9124;48.144;17.098;2023-11-19T17:39:48;4.30;99.90
17998;DHT22;9124;48.144;17.098;2023-11-19T17:44:14;4.40;99.90
17998;DHT22;9124;48.144;17.098;2023-11-19T17:48:41;4.50;99.90
17998;DHT22;9124;48.144;17.098;2023-11-19T17:53:08;4.50;99.90
17998;DHT22;9124;48.144;17.098;2023-11-19T17:57:35;4.50;99.90
17998;DHT22;9124;48.144;17.098;2023-11-19T18:02:02;4.50;99.90
17998;DHT22;9124;48.144;17.098;2023-11-19T18:06:28;4.40;99.90
17998;DHT22;9124;48.144;17.098;2023-11-19T18:10:54;4.40;99.90
17998;DHT22;9124;48.144;17.098;2023-11-19T18:15:20;4.40;99.90
17998;DHT22;9124;48.144;17.098;2023-11-19T18:19:47;4.40;99.90
17998;DHT22;9124;48.144;17.098;2023-11-19T18:24:13;4.40;99.90
17998;DHT22;9124;48.144;17.098;2023-11-19T18:28:41;4.40;99.90
17998;DHT22;9124;48.144;17.098;2023-11-19T18:33:07;4.50;99.90
17998;DHT22;9124;48.144;17.098;2023-11-19T18:37:35;4.50;99.90
17998;DHT22;9124;48.144;17.098;2023-11-19T18:42:01;4.50;99.90
17998;DHT22;9124;48.144;17.098;2023-11-19T18:46:27;4.50;99.90
17998;DHT22;9124;48.144;17.098;2023-11-19T18:50:54;4.50;99.90
17998;DHT22;9124;48.144;17.098;2023-11-19T18:55:20;4.50;99.90
17998;DHT22;9124;48.144;17.098;2023-11-19T18:59:47;4.50;99.90
17998;DHT22;9124;48.144;17.098;2023-11-19T19:04:14;4.50;99.90
17998;DHT22;9124;48.144;17.098;2023-11-19T19:08:40;4.40;99.90
17998;DHT22;9124;48.144;17.098;2023-11-19T19:13:08;4.20;99.90
17998;DHT22;9124;48.144;17.098;2023-11-19T19:17:34;4.20;99.90
17998;DHT22;9124;48.144;17.098;2023-11-19T19:22:02;4.10;99.90
17998;DHT22;9124;48.144;17.098;2023-11-19T19:26:29;4.10;99.90
17998;DHT22;9124;48.144;17.098;2023-11-19T19:30:56;4.10;99.90
17998;DHT22;9124;48.144;17.098;2023-11-19T19:35:23;4.10;99.90
17998;DHT22;9124;48.144;17.098;2023-11-19T19:39:55;4.10;99.90
17998;DHT22;9124;48.144;17.098;2023-11-19T19:44:21;4.20;99.90
17998;DHT22;9124;48.144;17.098;2023-11-19T19:48:48;4.30;99.90
17998;DHT22;9124;48.144;17.098;2023-11-19T19:53:15;4.30;99.90
17998;DHT22;9124;48.144;17.098;2023-11-19T19:57:41;4.40;99.90
17998;DHT22;9124;48.144;17.098;2023-11-19T20:02:07;4.40;99.90
17998;DHT22;9124;48.144;17.098;2023-11-19T20:06:38;4.40;99.90
17998;DHT22;9124;48.144;17.098;2023-11-19T20:11:05;4.40;99.90
17998;DHT22;9124;48.144;17.098;2023-11-19T20:15:37;4.60;99.90
17998;DHT22;9124;48.144;17.098;2023-11-19T20:20:04;4.60;99.90
17998;DHT22;9124;48.144;17.098;2023-11-19T20:24:32;4.50;99.90
17998;DHT22;9124;48.144;17.098;2023-11-19T20:28:58;4.50;99.90
17998;DHT22;9124;48.144;17.098;2023-11-19T20:33:25;4.50;99.90
17998;DHT22;9124;48.144;17.098;2023-11-19T20:37:51;4.30;99.90
17998;DHT22;9124;48.144;17.098;2023-11-19T20:42:17;4.20;99.90
17998;DHT22;9124;48.144;17.098;2023-11-19T20:46:44;4.10;99.90
17998;DHT22;9124;48.144;17.098;2023-11-19T20:51:11;4.20;99.90
17998;DHT22;9124;48.144;17.098;2023-11-19T20:55:38;4.20;99.90
17998;DHT22;9124;48.144;17.098;2023-11-19T21:00:06;4.30;99.90
17998;DHT22;9124;48.144;17.098;2023-11-19T21:04:33;4.40;99.90
17998;DHT22;9124;48.144;17.098;2023-11-19T21:08:59;4.50;99.90
17998;DHT22;9124;48.144;17.098;2023-11-19T21:13:25;4.50;99.90
17998;DHT22;9124;48.144;17.098;2023-11-19T21:17:52;4.30;99.90
17998;DHT22;9124;48.144;17.098;2023-11-19T21:22:18;4.10;99.90
17998;DHT22;9124;48.144;17.098;2023-11-19T21:26:46;4.10;99.90
17998;DHT22;9124;48.144;17.098;2023-11-19T21:31:12;4.20;99.90
17998;DHT22;9124;48.144;17.098;2023-11-19T21:35:43;4.30;99.90
17998;DHT22;9124;48.144;17.098;2023-11-19T21:40:10;4.20;99.90
17998;DHT22;9124;48.144;17.098;2023-11-19T21:44:37;4.00;99.90
17998;DHT22;9124;48.144;17.098;2023-11-19T21:49:04;3.90;99.90
17998;DHT22;9124;48.144;17.098;2023-11-19T21:53:30;3.90;99.90
17998;DHT22;9124;48.144;17.098;2023-11-19T21:57:57;4.00;99.90
17998;DHT22;9124;48.144;17.098;2023-11-19T22:02:24;4.10;99.90
17998;DHT22;9124;48.144;17.098;2023-11-19T22:06:52;4.30;99.90
17998;DHT22;9124;48.144;17.098;2023-11-19T22:11:19;4.40;99.90
17998;DHT22;9124;48.144;17.098;2023-11-19T22:15:45;4.60;99.90
17998;DHT22;9124;48.144;17.098;2023-11-19T22:20:12;4.50;99.90
17998;DHT22;9124;48.144;17.098;2023-11-19T22:24:39;4.50;99.90
17998;DHT22;9124;48.144;17.098;2023-11-19T22:29:05;4.50;99.90
17998;DHT22;9124;48.144;17.098;2023-11-19T22:33:31;4.50;99.90
17998;DHT22;9124;48.144;17.098;2023-11-19T22:37:57;4.60;99.90
17998;DHT22;9124;48.144;17.098;2023-11-19T22:42:24;4.60;99.90
17998;DHT22;9124;48.144;17.098;2023-11-19T22:46:50;4.60;99.90
17998;DHT22;9124;48.144;17.098;2023-11-19T22:51:16;4.60;99.90
17998;DHT22;9124;48.144;17.098;2023-11-19T22:55:43;4.60;99.90
17998;DHT22;9124;48.144;17.098;2023-11-19T23:00:10;4.80;99.90
17998;DHT22;9124;48.144;17.098;2023-11-19T23:05:05;4.90;99.90
17998;DHT22;9124;48.144;17.098;2023-11-19T23:09:33;5.00;99.90
17998;DHT22;9124;48.144;17.098;2023-11-19T23:14:00;5.10;99.90
17998;DHT22;9124;48.144;17.098;2023-11-19T23:18:27;5.30;99.90
17998;DHT22;9124;48.144;17.098;2023-11-19T23:22:53;5.40;99.90
17998;DHT22;9124;48.144;17.098;2023-11-19T23:27:20;5.40;99.90
17998;DHT22;9124;48.144;17.098;2023-11-19T23:31:46;5.30;99.90
17998;DHT22;9124;48.144;17.098;2023-11-19T23:36:13;5.20;99.90
17998;DHT22;9124;48.144;17.098;2023-11-19T23:40:39;5.10;99.90
17998;DHT22;9124;48.144;17.098;2023-11-19T23:45:06;5.00;99.90
17998;DHT22;9124;48.144;17.098;2023-11-19T23:49:32;4.90;99.90
17998;DHT22;9124;48.144;17.098;2023-11-19T23:53:58;4.80;99.90
17998;DHT22;9124;48.144;17.098;2023-11-19T23:58:25;4.70;99.90
